Dedham, Massachusetts
Current Conditions -  °F | °C
As of 11:28 AM on Saturday 20 Dec 2014 (Local Time) from KOWD Reporting Station
Overcast Overcast  
Wind Chill: 29°   Ceiling: 2700
Heat Index: 34°   Visibility: 10mi
Dew Point: 23°   Wind: 6mph
Humidity: 64%   Direction: 20°NNE
Pressure: 30.26"   Gusts: NA
Location:  42.25°N, 71.17°W
Report Text: KOWD 201628Z 02005KT 10SM OVC027 01/M05 A3026 RMK AO2 T00111050
Loading
Personal Weather Stations






























Interactive Weather Map New forecast layout! Learn more

10-Day Weather Forecast

Advertisements
Track Severe Weather on mobile